THY2GF LTFM-MMUN
Flight info
| Callsign | THY2GF |
|---|---|
| Flight time | N/A |
| Altitude | 34000 |
| Route | TUDBU Q26 ETUBA DCT ELDET DCT BACAM DCT MAVIR DCT GITAS DCT ARSIN DCT PEROL DCT RENKA DCT INBED DCT BOMBI DCT ADKUV DCT DENUT L610 KOPUL DCT ENHAQ/N0480F360 DCT GAJIT DCT BAPHU DCT LESLU/M083F360 DCT MAPAG DCT GIPER DCT DINIM/M083F370 DCT 52N020W 53N030W 53N040W 51N050W DCT ALLRY/N0471F380 N472A ALLEX DCT EMJAY/N0471F400 Q167 KALDA Q64 GUILD Q409 ENEME DCT TAY DCT CTY DCT KNOST DCT CIGAR M219 NAVVL L465 SHARQ UM463 WALKY UB879 NOSAT NOSAT1D |
| Aircraft | B772/H-SDE2E3FGHIJ5LORVWXY/LB1D1 |
Departure
| Time | N/A |
|---|---|
| Airport | İstanbul Airport (LTFM) |
Arrival
| Time | 2026-04-28 12:58 |
|---|---|
| Airport | Cancún International Airport (MMUN) |
| Time | Latitude | Longitude | Altitude | Speed | Heading |
|---|---|---|---|---|---|
| 2026-04-28 11:53 | 27.53215 | -84.68124 | 40297 ft | 447 kts | 252° |
| 2026-04-28 11:53 | 27.51813 | -84.71326 | 40294 ft | 453 kts | 245° |
| 2026-04-28 11:53 | 27.47792 | -84.76926 | 40297 ft | 467 kts | 228° |
| 2026-04-28 11:54 | 27.42354 | -84.81007 | 40295 ft | 482 kts | 210° |
| 2026-04-28 11:54 | 27.36081 | -84.83755 | 40297 ft | 487 kts | 206° |
| 2026-04-28 11:55 | 27.29720 | -84.86396 | 40297 ft | 487 kts | 206° |
| 2026-04-28 11:55 | 27.23423 | -84.88998 | 40298 ft | 487 kts | 205° |
| 2026-04-28 11:56 | 27.17069 | -84.91615 | 40298 ft | 486 kts | 205° |
| 2026-04-28 11:56 | 27.10714 | -84.94226 | 40298 ft | 486 kts | 205° |
| 2026-04-28 11:57 | 27.04375 | -84.96827 | 40298 ft | 486 kts | 205° |
| 2026-04-28 11:57 | 26.98045 | -84.99420 | 40285 ft | 486 kts | 205° |
| 2026-04-28 11:58 | 26.91727 | -85.02005 | 40285 ft | 486 kts | 205° |
| 2026-04-28 11:58 | 26.85407 | -85.04588 | 40276 ft | 486 kts | 205° |
| 2026-04-28 11:59 | 26.79086 | -85.07167 | 40276 ft | 486 kts | 205° |
| 2026-04-28 11:59 | 26.72763 | -85.09744 | 40277 ft | 486 kts | 205° |
| 2026-04-28 12:00 | 26.66438 | -85.12319 | 40277 ft | 484 kts | 205° |
| 2026-04-28 12:00 | 26.60149 | -85.14875 | 40281 ft | 477 kts | 205° |
| 2026-04-28 12:01 | 26.53968 | -85.17386 | 40286 ft | 479 kts | 205° |
| 2026-04-28 12:01 | 26.47688 | -85.19934 | 40285 ft | 479 kts | 205° |
| 2026-04-28 12:02 | 26.41458 | -85.22459 | 40285 ft | 478 kts | 205° |
| 2026-04-28 12:02 | 26.34927 | -85.24081 | 40288 ft | 489 kts | 191° |
| 2026-04-28 12:03 | 26.28189 | -85.24799 | 40279 ft | 490 kts | 190° |
| 2026-04-28 12:03 | 26.21416 | -85.25501 | 40280 ft | 488 kts | 190° |
| 2026-04-28 12:04 | 26.14707 | -85.26196 | 40280 ft | 487 kts | 190° |
| 2026-04-28 12:04 | 26.08010 | -85.26889 | 40280 ft | 487 kts | 190° |
| 2026-04-28 12:05 | 26.01300 | -85.27583 | 40281 ft | 487 kts | 190° |
| 2026-04-28 12:05 | 25.94585 | -85.28277 | 40281 ft | 487 kts | 190° |
| 2026-04-28 12:06 | 25.87845 | -85.28973 | 40275 ft | 487 kts | 190° |
| 2026-04-28 12:06 | 25.81135 | -85.29665 | 40275 ft | 487 kts | 190° |
| 2026-04-28 12:07 | 25.74432 | -85.30356 | 40275 ft | 487 kts | 190° |
| 2026-04-28 12:07 | 25.67697 | -85.31049 | 40276 ft | 486 kts | 189° |
| 2026-04-28 12:08 | 25.60958 | -85.31741 | 40276 ft | 486 kts | 189° |
| 2026-04-28 12:08 | 25.54221 | -85.32433 | 40277 ft | 486 kts | 189° |
| 2026-04-28 12:09 | 25.47493 | -85.33123 | 40277 ft | 486 kts | 189° |
| 2026-04-28 12:09 | 25.40783 | -85.33810 | 40277 ft | 486 kts | 189° |
| 2026-04-28 12:10 | 25.34168 | -85.35105 | 40277 ft | 478 kts | 204° |
| 2026-04-28 12:10 | 25.28275 | -85.38245 | 40279 ft | 470 kts | 214° |
| 2026-04-28 12:11 | 25.22613 | -85.41800 | 40278 ft | 472 kts | 214° |
| 2026-04-28 12:11 | 25.16896 | -85.45399 | 40278 ft | 472 kts | 214° |
| 2026-04-28 12:12 | 25.10984 | -85.48640 | 40275 ft | 479 kts | 202° |
| 2026-04-28 12:12 | 25.04381 | -85.49914 | 40277 ft | 489 kts | 185° |
| 2026-04-28 12:13 | 24.97569 | -85.49966 | 40259 ft | 490 kts | 184° |
| 2026-04-28 12:13 | 24.90782 | -85.49972 | 40248 ft | 490 kts | 184° |
| 2026-04-28 12:14 | 24.84209 | -85.49976 | 40241 ft | 489 kts | 184° |
| 2026-04-28 12:14 | 24.77428 | -85.49979 | 40241 ft | 490 kts | 184° |
| 2026-04-28 12:15 | 24.70563 | -85.49981 | 40241 ft | 489 kts | 183° |
| 2026-04-28 12:15 | 24.63705 | -85.49983 | 40242 ft | 490 kts | 183° |
| 2026-04-28 12:16 | 24.56879 | -85.49985 | 40242 ft | 490 kts | 183° |
| 2026-04-28 12:16 | 24.50107 | -85.49987 | 40243 ft | 490 kts | 183° |
| 2026-04-28 12:17 | 24.43284 | -85.49989 | 40243 ft | 490 kts | 183° |
| 2026-04-28 12:17 | 24.36522 | -85.49990 | 40244 ft | 490 kts | 183° |
| 2026-04-28 12:18 | 24.29662 | -85.49992 | 40244 ft | 490 kts | 183° |
| 2026-04-28 12:18 | 24.22899 | -85.49994 | 40245 ft | 489 kts | 183° |
| 2026-04-28 12:19 | 24.16097 | -85.49995 | 40245 ft | 489 kts | 183° |
| 2026-04-28 12:19 | 24.09227 | -85.49997 | 40245 ft | 489 kts | 183° |
| 2026-04-28 12:20 | 24.02466 | -85.49999 | 40246 ft | 489 kts | 183° |
| 2026-04-28 12:20 | 23.95647 | -85.50139 | 40247 ft | 488 kts | 186° |
| 2026-04-28 12:21 | 23.88873 | -85.50497 | 40244 ft | 488 kts | 186° |
| 2026-04-28 12:21 | 23.82120 | -85.50843 | 40241 ft | 488 kts | 186° |
| 2026-04-28 12:22 | 23.75330 | -85.51181 | 40241 ft | 488 kts | 186° |
| 2026-04-28 12:22 | 23.68531 | -85.51514 | 40242 ft | 486 kts | 186° |
| 2026-04-28 12:23 | 23.41951 | -85.52801 | 40186 ft | 487 kts | 186° |
| 2026-04-28 12:23 | 23.21710 | -85.53772 | 40045 ft | 487 kts | 186° |
| 2026-04-28 12:23 | 23.13891 | -85.54145 | 40219 ft | 485 kts | 185° |
| 2026-04-28 12:24 | 23.00442 | -85.54787 | 40212 ft | 485 kts | 185° |
| 2026-04-28 12:24 | 22.86912 | -85.55432 | 40204 ft | 485 kts | 185° |
| 2026-04-28 12:25 | 22.73461 | -85.56077 | 40208 ft | 485 kts | 185° |
| 2026-04-28 12:25 | 22.61465 | -85.56652 | 39864 ft | 475 kts | 185° |
| 2026-04-28 12:26 | 22.58132 | -85.56812 | 39057 ft | 476 kts | 185° |
| 2026-04-28 12:26 | 22.54814 | -85.56973 | 38193 ft | 479 kts | 185° |
| 2026-04-28 12:26 | 22.51520 | -85.57131 | 37237 ft | 483 kts | 185° |
| 2026-04-28 12:26 | 22.48122 | -85.57296 | 36202 ft | 489 kts | 185° |
| 2026-04-28 12:27 | 22.44711 | -85.57460 | 35194 ft | 494 kts | 185° |
| 2026-04-28 12:27 | 22.41234 | -85.57628 | 34182 ft | 499 kts | 185° |
| 2026-04-28 12:27 | 22.37802 | -85.57793 | 33210 ft | 502 kts | 184° |
| 2026-04-28 12:27 | 22.34284 | -85.57976 | 32206 ft | 505 kts | 186° |
| 2026-04-28 12:28 | 22.30788 | -85.58551 | 31190 ft | 507 kts | 195° |
| 2026-04-28 12:28 | 22.27468 | -85.59671 | 30325 ft | 504 kts | 204° |
| 2026-04-28 12:28 | 22.24336 | -85.61324 | 29614 ft | 497 kts | 213° |
| 2026-04-28 12:28 | 22.21529 | -85.63435 | 28998 ft | 488 kts | 223° |
| 2026-04-28 12:29 | 22.16999 | -85.68706 | 27807 ft | 470 kts | 236° |
| 2026-04-28 12:29 | 22.15025 | -85.71516 | 27224 ft | 465 kts | 237° |
| 2026-04-28 12:29 | 22.13098 | -85.74271 | 26641 ft | 460 kts | 237° |
| 2026-04-28 12:30 | 22.11195 | -85.76987 | 26053 ft | 455 kts | 237° |
| 2026-04-28 12:30 | 22.09275 | -85.79728 | 25462 ft | 451 kts | 237° |
| 2026-04-28 12:30 | 22.07416 | -85.82378 | 24875 ft | 446 kts | 237° |
| 2026-04-28 12:30 | 22.05549 | -85.85036 | 24283 ft | 442 kts | 237° |
| 2026-04-28 12:31 | 22.03681 | -85.87697 | 23690 ft | 437 kts | 237° |
| 2026-04-28 12:31 | 22.01871 | -85.90272 | 23103 ft | 433 kts | 237° |
| 2026-04-28 12:31 | 22.00070 | -85.92834 | 22521 ft | 429 kts | 237° |
| 2026-04-28 12:31 | 21.98275 | -85.95383 | 22131 ft | 419 kts | 237° |
| 2026-04-28 12:32 | 21.96472 | -85.97806 | 22037 ft | 405 kts | 230° |
| 2026-04-28 12:32 | 21.94446 | -85.99873 | 21866 ft | 404 kts | 225° |
| 2026-04-28 12:32 | 21.92288 | -86.01929 | 21575 ft | 413 kts | 224° |
| 2026-04-28 12:32 | 21.90123 | -86.03977 | 21274 ft | 409 kts | 224° |
| 2026-04-28 12:33 | 21.87985 | -86.05996 | 20982 ft | 407 kts | 224° |
| 2026-04-28 12:33 | 21.85878 | -86.07984 | 20704 ft | 407 kts | 224° |
| 2026-04-28 12:33 | 21.83733 | -86.10005 | 20425 ft | 406 kts | 224° |
| 2026-04-28 12:33 | 21.81594 | -86.12019 | 20148 ft | 405 kts | 224° |
| 2026-04-28 12:34 | 21.79487 | -86.14003 | 19875 ft | 404 kts | 224° |
| 2026-04-28 12:34 | 21.77338 | -86.16024 | 19596 ft | 401 kts | 224° |
| 2026-04-28 12:34 | 21.75227 | -86.18008 | 19323 ft | 399 kts | 223° |
| 2026-04-28 12:34 | 21.73121 | -86.19986 | 19047 ft | 392 kts | 223° |
| 2026-04-28 12:35 | 21.71111 | -86.21873 | 18786 ft | 381 kts | 223° |
| 2026-04-28 12:35 | 21.69127 | -86.23735 | 18530 ft | 371 kts | 223° |
| 2026-04-28 12:35 | 21.67179 | -86.25563 | 18281 ft | 362 kts | 223° |
| 2026-04-28 12:35 | 21.65288 | -86.27338 | 18034 ft | 353 kts | 223° |
| 2026-04-28 12:36 | 21.63440 | -86.29072 | 17619 ft | 351 kts | 223° |
| 2026-04-28 12:36 | 21.61588 | -86.30811 | 17089 ft | 353 kts | 223° |
| 2026-04-28 12:36 | 21.59746 | -86.32540 | 16580 ft | 353 kts | 223° |
| 2026-04-28 12:36 | 21.57894 | -86.34277 | 16106 ft | 351 kts | 223° |
| 2026-04-28 12:37 | 21.56040 | -86.36015 | 15644 ft | 349 kts | 223° |
| 2026-04-28 12:37 | 21.54226 | -86.37715 | 15194 ft | 347 kts | 223° |
| 2026-04-28 12:37 | 21.52363 | -86.39339 | 14748 ft | 345 kts | 217° |
| 2026-04-28 12:37 | 21.50392 | -86.40778 | 14448 ft | 339 kts | 215° |
| 2026-04-28 12:38 | 21.48428 | -86.42177 | 14191 ft | 336 kts | 215° |
| 2026-04-28 12:38 | 21.46477 | -86.43568 | 13913 ft | 336 kts | 215° |
| 2026-04-28 12:38 | 21.44538 | -86.44952 | 13625 ft | 335 kts | 215° |
| 2026-04-28 12:38 | 21.42620 | -86.46323 | 13339 ft | 333 kts | 215° |
| 2026-04-28 12:39 | 21.40688 | -86.47704 | 13052 ft | 331 kts | 214° |
| 2026-04-28 12:39 | 21.38794 | -86.49058 | 12771 ft | 329 kts | 214° |
| 2026-04-28 12:39 | 21.36886 | -86.50421 | 12487 ft | 327 kts | 214° |
| 2026-04-28 12:39 | 21.35001 | -86.51768 | 12207 ft | 326 kts | 214° |
| 2026-04-28 12:40 | 21.33132 | -86.53105 | 11923 ft | 324 kts | 214° |
| 2026-04-28 12:40 | 21.31248 | -86.54452 | 11631 ft | 321 kts | 214° |
| 2026-04-28 12:40 | 21.29413 | -86.55764 | 11348 ft | 318 kts | 214° |
| 2026-04-28 12:40 | 21.27574 | -86.57079 | 11063 ft | 316 kts | 214° |
| 2026-04-28 12:41 | 21.25765 | -86.58370 | 10782 ft | 311 kts | 214° |
| 2026-04-28 12:41 | 21.23981 | -86.59644 | 10517 ft | 305 kts | 214° |
| 2026-04-28 12:41 | 21.22236 | -86.60890 | 10261 ft | 298 kts | 214° |
| 2026-04-28 12:41 | 21.20521 | -86.62115 | 10014 ft | 295 kts | 214° |
| 2026-04-28 12:42 | 21.18834 | -86.63319 | 9765 ft | 289 kts | 214° |
| 2026-04-28 12:42 | 21.17158 | -86.64514 | 9521 ft | 284 kts | 214° |
| 2026-04-28 12:42 | 21.15511 | -86.65688 | 9279 ft | 279 kts | 213° |
| 2026-04-28 12:42 | 21.13910 | -86.66830 | 9045 ft | 274 kts | 213° |
| 2026-04-28 12:43 | 21.12331 | -86.67956 | 8812 ft | 270 kts | 213° |
| 2026-04-28 12:43 | 21.10772 | -86.69067 | 8585 ft | 267 kts | 213° |
| 2026-04-28 12:43 | 21.09246 | -86.70174 | 8356 ft | 265 kts | 218° |
| 2026-04-28 12:43 | 21.08127 | -86.71683 | 8249 ft | 260 kts | 249° |
| 2026-04-28 12:44 | 21.07777 | -86.73591 | 8303 ft | 263 kts | 276° |
| 2026-04-28 12:44 | 21.08243 | -86.75478 | 8316 ft | 259 kts | 297° |
| 2026-04-28 12:44 | 21.09107 | -86.77162 | 8322 ft | 257 kts | 304° |
| 2026-04-28 12:44 | 21.10066 | -86.78748 | 8135 ft | 253 kts | 306° |
| 2026-04-28 12:45 | 21.11049 | -86.80318 | 7740 ft | 256 kts | 306° |
| 2026-04-28 12:45 | 21.12046 | -86.81910 | 7423 ft | 255 kts | 306° |
| 2026-04-28 12:45 | 21.13040 | -86.83499 | 7123 ft | 254 kts | 306° |
| 2026-04-28 12:45 | 21.14028 | -86.85077 | 6826 ft | 254 kts | 306° |
| 2026-04-28 12:46 | 21.15007 | -86.86643 | 6519 ft | 253 kts | 306° |
| 2026-04-28 12:46 | 21.15988 | -86.88212 | 6177 ft | 252 kts | 306° |
| 2026-04-28 12:46 | 21.16967 | -86.89779 | 5783 ft | 248 kts | 305° |
| 2026-04-28 12:46 | 21.17891 | -86.91259 | 5745 ft | 232 kts | 305° |
| 2026-04-28 12:47 | 21.18779 | -86.92683 | 5474 ft | 228 kts | 305° |
| 2026-04-28 12:47 | 21.19669 | -86.94109 | 5143 ft | 228 kts | 305° |
| 2026-04-28 12:47 | 21.20544 | -86.95511 | 4827 ft | 228 kts | 304° |
| 2026-04-28 12:47 | 21.21419 | -86.96913 | 4533 ft | 226 kts | 304° |
| 2026-04-28 12:48 | 21.22297 | -86.98322 | 4227 ft | 225 kts | 304° |
| 2026-04-28 12:48 | 21.23156 | -86.99702 | 3952 ft | 219 kts | 304° |
| 2026-04-28 12:48 | 21.23999 | -87.01054 | 3399 ft | 222 kts | 304° |
| 2026-04-28 12:48 | 21.24843 | -87.02406 | 3047 ft | 218 kts | 304° |
| 2026-04-28 12:49 | 21.25706 | -87.03790 | 3003 ft | 221 kts | 304° |
| 2026-04-28 12:49 | 21.26573 | -87.05180 | 2997 ft | 221 kts | 304° |
| 2026-04-28 12:49 | 21.27428 | -87.06552 | 2996 ft | 221 kts | 304° |
| 2026-04-28 12:49 | 21.28241 | -87.07952 | 2994 ft | 221 kts | 293° |
| 2026-04-28 12:50 | 21.28404 | -87.09581 | 2987 ft | 220 kts | 257° |
| 2026-04-28 12:50 | 21.27703 | -87.11017 | 2872 ft | 218 kts | 225° |
| 2026-04-28 12:50 | 21.26556 | -87.12054 | 2667 ft | 214 kts | 213° |
| 2026-04-28 12:50 | 21.25322 | -87.12952 | 2485 ft | 213 kts | 211° |
| 2026-04-28 12:51 | 21.24069 | -87.13837 | 2315 ft | 211 kts | 211° |
| 2026-04-28 12:51 | 21.22814 | -87.14631 | 2149 ft | 209 kts | 197° |
| 2026-04-28 12:51 | 21.21390 | -87.14683 | 2002 ft | 203 kts | 162° |
| 2026-04-28 12:51 | 21.20172 | -87.13923 | 1989 ft | 203 kts | 136° |
| 2026-04-28 12:52 | 21.19297 | -87.12730 | 1994 ft | 202 kts | 124° |
| 2026-04-28 12:52 | 21.18516 | -87.11482 | 1996 ft | 202 kts | 123° |
| 2026-04-28 12:52 | 21.17729 | -87.10217 | 1996 ft | 202 kts | 123° |
| 2026-04-28 12:52 | 21.16946 | -87.08960 | 1995 ft | 202 kts | 123° |
| 2026-04-28 12:53 | 21.16155 | -87.07690 | 1995 ft | 202 kts | 123° |
| 2026-04-28 12:53 | 21.15388 | -87.06461 | 1989 ft | 193 kts | 123° |
| 2026-04-28 12:53 | 21.14653 | -87.05286 | 1983 ft | 183 kts | 123° |
| 2026-04-28 12:53 | 21.13944 | -87.04153 | 1982 ft | 181 kts | 123° |
| 2026-04-28 12:54 | 21.13240 | -87.03025 | 1981 ft | 181 kts | 123° |
| 2026-04-28 12:54 | 21.12534 | -87.01893 | 1981 ft | 181 kts | 123° |
| 2026-04-28 12:54 | 21.11827 | -87.00761 | 1980 ft | 181 kts | 123° |
| 2026-04-28 12:54 | 21.11122 | -86.99631 | 1988 ft | 177 kts | 123° |
| 2026-04-28 12:55 | 21.10466 | -86.98583 | 1975 ft | 167 kts | 123° |
| 2026-04-28 12:55 | 21.09827 | -86.97561 | 1893 ft | 165 kts | 123° |
| 2026-04-28 12:55 | 21.09195 | -86.96551 | 1682 ft | 161 kts | 123° |
| 2026-04-28 12:55 | 21.08573 | -86.95557 | 1477 ft | 159 kts | 123° |
| 2026-04-28 12:56 | 21.08005 | -86.94648 | 1281 ft | 148 kts | 123° |
| 2026-04-28 12:56 | 21.07447 | -86.93757 | 1089 ft | 141 kts | 123° |
| 2026-04-28 12:56 | 21.06906 | -86.92892 | 898 ft | 140 kts | 123° |
| 2026-04-28 12:56 | 21.06372 | -86.92034 | 700 ft | 138 kts | 123° |
| 2026-04-28 12:57 | 21.05831 | -86.91171 | 518 ft | 139 kts | 123° |
| 2026-04-28 12:57 | 21.05290 | -86.90304 | 340 ft | 139 kts | 123° |
| 2026-04-28 12:57 | 21.04756 | -86.89448 | 148 ft | 139 kts | 123° |
| 2026-04-28 12:57 | 21.04223 | -86.88600 | 48 ft | 132 kts | 122° |
| 2026-04-28 12:58 | 21.03762 | -86.87862 | 36 ft | 100 kts | 125° |
| 2026-04-28 12:58 | 21.03454 | -86.87378 | 36 ft | 55 kts | 124° |
| 2026-04-28 12:58 | 21.03268 | -86.87080 | 36 ft | 45 kts | 123° |
| 2026-04-28 12:58 | 21.03099 | -86.86806 | 36 ft | 43 kts | 123° |
| 2026-04-28 12:59 | 21.02938 | -86.86540 | 36 ft | 41 kts | 123° |
| 2026-04-28 12:59 | 21.02821 | -86.86316 | 36 ft | 27 kts | 88° |
| 2026-04-28 12:59 | 21.02953 | -86.86263 | 36 ft | 26 kts | 309° |
| 2026-04-28 12:59 | 21.03055 | -86.86424 | 36 ft | 25 kts | 304° |
| 2026-04-28 13:00 | 21.03156 | -86.86586 | 36 ft | 26 kts | 301° |
| 2026-04-28 13:00 | 21.03259 | -86.86753 | 36 ft | 27 kts | 304° |
| 2026-04-28 13:00 | 21.03369 | -86.86925 | 36 ft | 28 kts | 303° |
| 2026-04-28 13:00 | 21.03480 | -86.87101 | 36 ft | 29 kts | 302° |
| 2026-04-28 13:01 | 21.03592 | -86.87286 | 36 ft | 29 kts | 304° |
| 2026-04-28 13:01 | 21.03691 | -86.87440 | 36 ft | 20 kts | 304° |
| 2026-04-28 13:01 | 21.03716 | -86.87482 | 36 ft | 10 kts | 303° |
| 2026-04-28 13:02 | 21.03753 | -86.87542 | 36 ft | 13 kts | 303° |
| 2026-04-28 13:02 | 21.03824 | -86.87569 | 36 ft | 12 kts | 22° |
| 2026-04-28 13:02 | 21.03878 | -86.87574 | 36 ft | 7 kts | 353° |
| 2026-04-28 13:03 | 21.03901 | -86.87577 | 36 ft | 0 kts | 353° |